EHBK/MST METAR and TAF weather

Enter ICAO airport designator
Station Type Date Time Source
EHBK METAR 2021/01/17 18:55 UTC NOAA

EHBK 171855Z AUTO 26006KT 220V300 9999 FEW006 BKN007 OVC008 04/04 Q1023 BECMG BKN018


Station Type Date Time Source
EHBK Decoded METAR 2021/01/17 18:55 UTC NOAA

Maastricht Airport Zuid Limburg, Netherlands (EHBK) 50-55N 005-47E 116M
Jan 17, 2021 - 01:55 PM EST / 2021.01.17 1855 UTC
Wind: from the W (260 degrees) at 7 MPH (6 KT) (direction variable):0
Visibility: greater than 7 mile(s):0
Sky conditions: overcast
Temperature: 39 F (4 C)
Dew Point: 39 F (4 C)
Relative Humidity: 100%
Pressure (altimeter): 30.21 in. Hg (1023 hPa)
ob: EHBK 171855Z AUTO 26006KT 220V300 9999 FEW006 BKN007 OVC008 04/04 Q1023 BECMG BKN018
cycle: 19

Station Type Date Time Source
EHBK TAF 2021/01/17 18:27 UTC NOAA

TAF EHBK 171703Z 1718/1824 27004KT 9999 BKN017 PROB30
TEMPO 1718/1802 7000 -SHRA FEW015TCU BKN020 PROB30 1718/1812 7000 BKN008
BECMG 1810/1813 23012KT BKN019 PROB30
TEMPO 1815/1822 7000 -DZ BKN012

Example: see airport list